createdAt,value
2018-12-12T00:01:09.802Z,96.80
2018-12-12T00:03:38.180Z,97.41
2018-12-12T00:06:06.548Z,97.09
2018-12-12T00:08:34.946Z,97.43
2018-12-12T00:11:03.405Z,97.22
2018-12-12T00:13:31.734Z,96.46
2018-12-12T00:16:00.185Z,96.49
2018-12-12T00:18:28.654Z,97.28
2018-12-12T00:20:57.076Z,96.70
2018-12-12T00:23:25.545Z,96.38
2018-12-12T00:25:53.855Z,96.38
2018-12-12T00:28:22.257Z,96.75
2018-12-12T00:30:50.662Z,96.66
2018-12-12T00:33:19.009Z,96.24
2018-12-12T00:35:47.337Z,96.45
2018-12-12T00:38:15.648Z,96.29
2018-12-12T00:40:44.020Z,96.15
2018-12-12T00:43:12.430Z,96.51
2018-12-12T00:45:40.801Z,96.20
2018-12-12T00:48:09.199Z,96.00
2018-12-12T00:50:37.522Z,96.17
2018-12-12T00:53:05.941Z,95.72
2018-12-12T00:55:34.274Z,95.85
2018-12-12T00:58:02.669Z,95.75
2018-12-12T01:00:31.093Z,96.65
2018-12-12T01:02:59.374Z,96.29
2018-12-12T01:05:28.863Z,96.08
2018-12-12T01:07:57.226Z,96.63
2018-12-12T01:10:25.721Z,96.54
2018-12-12T01:12:54.013Z,96.51
2018-12-12T01:15:22.367Z,96.78
2018-12-12T01:17:50.733Z,96.83
2018-12-12T01:20:19.176Z,97.04
2018-12-12T01:22:47.599Z,96.95
2018-12-12T01:25:15.940Z,96.25
2018-12-12T01:27:44.337Z,95.98
2018-12-12T01:30:12.637Z,96.33
2018-12-12T01:32:40.958Z,96.53
2018-12-12T01:35:09.385Z,96.79
2018-12-12T01:37:37.750Z,96.67
2018-12-12T01:40:06.510Z,96.10
2018-12-12T01:42:34.822Z,95.85
2018-12-12T01:45:03.284Z,96.40
2018-12-12T01:47:31.583Z,95.34
2018-12-12T01:49:59.901Z,95.57
2018-12-12T01:52:28.282Z,95.51
2018-12-12T01:54:56.602Z,95.68
2018-12-12T01:57:24.956Z,96.05
2018-12-12T01:59:53.267Z,96.50
2018-12-12T02:02:21.597Z,96.15
2018-12-12T02:04:50.005Z,96.16
2018-12-12T02:07:18.489Z,95.99
2018-12-12T02:09:46.859Z,96.42
2018-12-12T02:12:15.194Z,95.36
2018-12-12T02:14:43.533Z,95.91
2018-12-12T02:17:11.865Z,95.85
2018-12-12T02:19:40.288Z,96.48
2018-12-12T02:22:08.732Z,95.62
2018-12-12T02:24:37.211Z,95.76
2018-12-12T02:27:05.598Z,95.61
2018-12-12T02:29:33.885Z,95.66
2018-12-12T02:32:02.280Z,95.46
2018-12-12T02:34:30.573Z,96.03
2018-12-12T02:36:59.119Z,96.01
2018-12-12T02:39:27.463Z,96.52
2018-12-12T02:41:56.066Z,96.46
2018-12-12T02:44:24.578Z,96.73
2018-12-12T02:46:52.871Z,96.67
2018-12-12T02:49:21.217Z,96.66
2018-12-12T02:51:49.704Z,96.43
2018-12-12T02:54:18.187Z,96.70
2018-12-12T02:56:46.520Z,96.28
2018-12-12T02:59:14.922Z,96.93
2018-12-12T03:01:43.299Z,97.06
2018-12-12T03:04:11.707Z,96.89
2018-12-12T03:06:40.075Z,96.77
2018-12-12T03:09:08.399Z,97.26
2018-12-12T03:11:36.867Z,97.06
2018-12-12T03:14:05.284Z,97.34
2018-12-12T03:16:33.786Z,97.43
2018-12-12T03:19:02.116Z,97.93
2018-12-12T03:21:30.503Z,98.00
2018-12-12T03:23:58.920Z,97.84
2018-12-12T03:26:27.282Z,97.91
2018-12-12T03:28:55.590Z,97.69
2018-12-12T03:31:23.886Z,97.64
2018-12-12T03:33:52.221Z,98.01
2018-12-12T03:36:20.537Z,97.90
2018-12-12T03:38:48.806Z,98.11
2018-12-12T03:41:17.236Z,98.02
2018-12-12T03:43:46.527Z,98.20
2018-12-12T03:46:15.031Z,98.99
2018-12-12T03:48:43.332Z,99.02
2018-12-12T03:51:11.670Z,98.83
2018-12-12T03:53:39.963Z,99.00
2018-12-12T03:56:08.317Z,99.51
2018-12-12T03:58:36.610Z,98.75
2018-12-12T04:01:04.972Z,99.31
2018-12-12T04:03:33.387Z,99.47
2018-12-12T04:06:01.709Z,99.25
2018-12-12T04:08:30.227Z,99.64
2018-12-12T04:10:58.553Z,99.62
2018-12-12T04:13:26.846Z,99.35
2018-12-12T04:15:55.168Z,99.28
2018-12-12T04:18:23.480Z,99.68
2018-12-12T04:20:51.901Z,99.07
2018-12-12T04:23:20.233Z,99.56
2018-12-12T04:25:48.789Z,99.81
2018-12-12T04:28:17.131Z,99.22
2018-12-12T04:30:45.501Z,98.86
2018-12-12T04:33:13.877Z,99.54
2018-12-12T04:35:42.202Z,99.04
2018-12-12T04:38:10.538Z,99.36
2018-12-12T04:40:39.066Z,99.78
2018-12-12T04:43:07.397Z,99.20
2018-12-12T04:45:35.861Z,99.74
2018-12-12T04:48:04.276Z,99.57
2018-12-12T04:50:32.801Z,99.41
2018-12-12T04:53:01.200Z,99.54
2018-12-12T04:55:29.582Z,99.61
2018-12-12T04:57:57.960Z,99.57
2018-12-12T05:00:26.356Z,99.86
2018-12-12T05:02:55.101Z,100.00
2018-12-12T05:05:23.617Z,99.62
2018-12-12T05:07:51.985Z,98.96
2018-12-12T05:10:20.310Z,99.38
2018-12-12T05:12:48.666Z,99.23
2018-12-12T05:15:17.099Z,99.09
2018-12-12T05:17:45.423Z,99.11
2018-12-12T05:20:13.777Z,99.36
2018-12-12T05:22:42.238Z,98.98
2018-12-12T05:25:10.605Z,99.45
2018-12-12T05:27:39.140Z,99.47
2018-12-12T05:30:07.801Z,99.39
2018-12-12T05:32:36.217Z,100.00
2018-12-12T05:35:05.107Z,99.78
2018-12-12T05:37:33.499Z,99.84
2018-12-12T05:40:01.909Z,99.41
2018-12-12T05:42:30.489Z,99.61
2018-12-12T05:44:59.173Z,99.63
2018-12-12T05:47:27.674Z,99.88
2018-12-12T05:49:56.054Z,99.49
2018-12-12T05:52:24.460Z,98.68
2018-12-12T05:54:52.753Z,99.09
2018-12-12T05:57:21.106Z,99.30
2018-12-12T05:59:49.405Z,99.01
2018-12-12T06:02:17.699Z,99.29
2018-12-12T06:04:46.041Z,100.00
2018-12-12T06:07:14.480Z,100.00
2018-12-12T06:09:42.846Z,100.00
2018-12-12T06:12:11.179Z,99.86
2018-12-12T06:14:39.660Z,99.99
2018-12-12T06:17:08.109Z,99.68
2018-12-12T06:19:36.421Z,99.51
2018-12-12T06:22:04.750Z,100.00
2018-12-12T06:24:33.415Z,100.00
2018-12-12T06:27:02.085Z,100.00
2018-12-12T06:29:30.406Z,99.88
2018-12-12T06:31:58.732Z,99.77
2018-12-12T06:34:27.076Z,100.00
2018-12-12T06:36:55.546Z,100.00
2018-12-12T06:39:23.831Z,99.68
2018-12-12T06:41:52.151Z,99.73
2018-12-12T06:44:20.672Z,99.54
2018-12-12T06:46:49.003Z,99.37
2018-12-12T06:49:17.374Z,99.54
2018-12-12T06:51:45.768Z,98.74
2018-12-12T06:54:14.132Z,98.71
2018-12-12T06:56:42.521Z,98.09
2018-12-12T06:59:10.883Z,98.80
2018-12-12T07:01:39.732Z,98.59
2018-12-12T07:04:08.160Z,99.38
2018-12-12T07:06:36.793Z,98.98
2018-12-12T07:09:08.390Z,98.56
2018-12-12T07:11:37.252Z,98.31
2018-12-12T07:14:05.614Z,97.93
2018-12-12T07:16:33.929Z,98.44
2018-12-12T07:19:03.379Z,98.83
2018-12-12T07:21:31.964Z,99.16
2018-12-12T07:24:00.626Z,98.79
2018-12-12T07:26:29.116Z,98.66
2018-12-12T07:28:57.437Z,99.25
2018-12-12T07:31:25.364Z,98.78
2018-12-12T07:33:54.236Z,97.44
2018-12-12T07:36:22.625Z,97.15
2018-12-12T07:38:50.994Z,97.26
2018-12-12T07:41:19.456Z,97.70
2018-12-12T07:43:47.957Z,96.00
2018-12-12T07:46:18.700Z,96.21
2018-12-12T07:48:47.022Z,95.16
2018-12-12T07:51:15.342Z,95.10
2018-12-12T07:53:43.702Z,96.53
2018-12-12T07:56:12.202Z,95.92
2018-12-12T07:58:40.631Z,96.31
2018-12-12T08:01:09.049Z,96.34
2018-12-12T08:03:37.394Z,94.92
2018-12-12T08:06:05.692Z,95.09
2018-12-12T08:08:33.963Z,94.60
2018-12-12T08:11:02.274Z,94.57
2018-12-12T08:13:30.580Z,94.61
2018-12-12T08:15:59.206Z,94.94
2018-12-12T08:18:27.686Z,95.82
2018-12-12T08:20:56.021Z,95.17
2018-12-12T08:23:24.945Z,96.27
2018-12-12T08:25:53.603Z,95.33
2018-12-12T08:28:21.864Z,95.25
2018-12-12T08:30:50.261Z,95.16
2018-12-12T08:33:18.648Z,95.19
2018-12-12T08:35:47.057Z,95.50
2018-12-12T08:38:15.399Z,95.71
2018-12-12T08:40:43.836Z,96.00
2018-12-12T08:43:12.313Z,96.08
2018-12-12T08:45:40.757Z,96.12
2018-12-12T08:48:09.271Z,95.87
2018-12-12T08:50:37.684Z,94.59
2018-12-12T08:53:05.995Z,95.21
2018-12-12T08:55:34.605Z,97.18
2018-12-12T08:58:02.953Z,94.81
2018-12-12T09:00:31.374Z,95.73
2018-12-12T09:02:59.714Z,95.53
2018-12-12T09:05:28.086Z,95.90
2018-12-12T09:07:56.789Z,95.32
2018-12-12T09:10:25.278Z,94.98
2018-12-12T09:12:53.829Z,95.80
2018-12-12T09:15:22.233Z,96.17
2018-12-12T09:17:50.592Z,95.63
2018-12-12T09:20:19.144Z,95.26
2018-12-12T09:22:47.835Z,95.40
2018-12-12T09:25:16.266Z,94.92
2018-12-12T09:27:44.693Z,95.30
2018-12-12T09:30:13.207Z,94.85
2018-12-12T09:32:41.712Z,95.45
2018-12-12T09:35:10.237Z,94.60
2018-12-12T09:37:38.594Z,94.33
2018-12-12T09:40:06.930Z,94.06
2018-12-12T09:42:35.360Z,94.11
2018-12-12T09:45:04.944Z,93.37
2018-12-12T09:47:33.802Z,93.78
2018-12-12T09:50:02.155Z,93.85
2018-12-12T09:52:30.626Z,94.18
2018-12-12T09:54:59.019Z,94.49
2018-12-12T09:57:27.363Z,94.59
2018-12-12T09:59:55.785Z,94.83
2018-12-12T10:02:24.133Z,94.33
2018-12-12T10:04:52.535Z,94.33
2018-12-12T10:07:20.877Z,94.23
2018-12-12T10:09:49.280Z,93.39
2018-12-12T10:12:17.656Z,94.08
2018-12-12T10:14:46.248Z,93.52
2018-12-12T10:17:14.615Z,93.04
2018-12-12T10:19:43.312Z,93.13
2018-12-12T10:22:11.683Z,93.68
2018-12-12T10:24:40.372Z,92.84
2018-12-12T10:27:09.132Z,92.95
2018-12-12T10:29:38.408Z,92.16
2018-12-12T10:32:07.142Z,91.69
2018-12-12T10:34:35.514Z,92.04
2018-12-12T10:37:03.947Z,92.09
2018-12-12T10:39:32.431Z,90.77
2018-12-12T10:42:00.854Z,90.78
2018-12-12T10:44:29.211Z,90.19
2018-12-12T10:46:58.282Z,91.75
2018-12-12T10:49:26.793Z,93.17
2018-12-12T10:51:55.297Z,92.70
2018-12-12T10:54:23.729Z,90.57
2018-12-12T10:56:52.231Z,91.34
2018-12-12T10:59:20.620Z,91.15
2018-12-12T11:01:49.040Z,91.40
2018-12-12T11:04:19.099Z,91.67
2018-12-12T11:06:47.568Z,92.14
2018-12-12T11:09:15.829Z,91.78
2018-12-12T11:11:44.204Z,92.11
2018-12-12T11:14:12.563Z,92.60
2018-12-12T11:16:40.928Z,92.69
2018-12-12T11:19:09.469Z,92.66
2018-12-12T11:21:38.512Z,93.07
2018-12-12T11:24:06.829Z,93.76
2018-12-12T11:26:35.446Z,94.27
2018-12-12T11:29:03.855Z,94.89
2018-12-12T11:31:32.303Z,94.50
2018-12-12T11:34:00.976Z,94.41
2018-12-12T11:36:29.366Z,93.92
2018-12-12T11:38:57.710Z,94.62
2018-12-12T11:41:26.082Z,94.46
2018-12-12T11:43:54.381Z,94.12
2018-12-12T11:46:22.775Z,92.75
2018-12-12T11:48:51.114Z,93.58
2018-12-12T11:51:19.598Z,93.90
2018-12-12T11:53:47.989Z,94.88
2018-12-12T11:56:16.502Z,94.23
2018-12-12T11:58:44.805Z,95.11
2018-12-12T12:01:13.117Z,94.59
2018-12-12T12:03:41.413Z,95.16
2018-12-12T12:06:09.750Z,95.97
2018-12-12T12:08:38.020Z,95.85
2018-12-12T12:11:06.393Z,96.03
2018-12-12T12:13:34.698Z,95.87
2018-12-12T12:16:02.964Z,96.19
2018-12-12T12:18:31.354Z,96.13
2018-12-12T12:20:59.705Z,95.90
2018-12-12T12:23:28.006Z,95.75
2018-12-12T12:25:56.361Z,95.00
2018-12-12T12:28:24.675Z,95.00
2018-12-12T12:30:53.765Z,95.20
2018-12-12T12:33:22.112Z,95.07
2018-12-12T12:35:50.475Z,95.39
2018-12-12T12:38:19.109Z,95.40
2018-12-12T12:40:47.610Z,95.69
2018-12-12T12:43:15.950Z,94.68
2018-12-12T12:45:44.233Z,95.33
2018-12-12T12:48:13.614Z,95.43
2018-12-12T12:50:42.467Z,95.58
2018-12-12T12:53:10.793Z,95.81
2018-12-12T12:55:39.056Z,94.70
2018-12-12T12:58:07.360Z,95.53
2018-12-12T13:00:35.788Z,94.56
2018-12-12T13:03:04.647Z,95.19
2018-12-12T13:05:33.733Z,94.89
2018-12-12T13:08:02.076Z,95.29
2018-12-12T13:10:30.768Z,95.03
2018-12-12T13:12:59.673Z,94.41
2018-12-12T13:15:28.565Z,94.94
2018-12-12T13:17:57.050Z,94.79
2018-12-12T13:20:25.503Z,94.48
2018-12-12T13:22:53.966Z,94.96
2018-12-12T13:25:22.434Z,96.78
2018-12-12T13:27:51.140Z,96.00
2018-12-12T13:30:19.516Z,95.33
2018-12-12T13:32:48.193Z,95.12
2018-12-12T13:35:16.487Z,94.19
2018-12-12T13:37:45.128Z,94.50
2018-12-12T13:40:13.832Z,94.06
2018-12-12T13:42:42.213Z,93.68
2018-12-12T13:45:10.701Z,93.40
2018-12-12T13:47:39.116Z,93.43
2018-12-12T13:50:07.656Z,92.46
2018-12-12T13:52:36.053Z,93.85
2018-12-12T13:55:04.618Z,92.52
2018-12-12T13:57:32.973Z,91.58
2018-12-12T14:00:01.529Z,92.59
2018-12-12T14:02:30.097Z,92.13
2018-12-12T14:04:58.524Z,92.33
2018-12-12T14:07:27.098Z,92.89
2018-12-12T14:09:55.502Z,92.43
2018-12-12T14:12:24.223Z,92.46
2018-12-12T14:14:52.654Z,93.39
2018-12-12T14:17:20.938Z,93.07
2018-12-12T14:19:49.489Z,93.01
2018-12-12T14:22:17.782Z,93.52
2018-12-12T14:24:46.236Z,94.37
2018-12-12T14:27:14.821Z,94.39
2018-12-12T14:29:43.359Z,95.10
2018-12-12T14:32:11.685Z,95.45
2018-12-12T14:34:40.032Z,96.32
2018-12-12T14:37:08.474Z,95.50
2018-12-12T14:39:36.868Z,95.50
2018-12-12T14:42:05.148Z,96.55
2018-12-12T14:44:33.538Z,97.23
2018-12-12T14:47:02.110Z,96.59
2018-12-12T14:49:30.485Z,97.37
2018-12-12T14:51:58.772Z,96.74
2018-12-12T14:54:27.302Z,96.55
2018-12-12T14:56:55.569Z,97.61
2018-12-12T14:59:23.987Z,97.79
2018-12-12T15:01:52.308Z,97.52
2018-12-12T15:04:20.614Z,97.45
2018-12-12T15:06:48.947Z,97.67
2018-12-12T15:09:17.253Z,98.76
2018-12-12T15:11:45.552Z,99.26
2018-12-12T15:14:13.956Z,99.14
2018-12-12T15:16:42.304Z,99.07
2018-12-12T15:19:10.709Z,99.16
2018-12-12T15:21:39.033Z,99.67
2018-12-12T15:24:07.458Z,99.01
2018-12-12T15:26:35.820Z,99.46
2018-12-12T15:29:04.210Z,99.89
2018-12-12T15:31:32.577Z,100.00
2018-12-12T15:34:00.941Z,100.00
2018-12-12T15:36:29.436Z,99.93
2018-12-12T15:38:57.785Z,100.00
2018-12-12T15:41:26.103Z,99.67
2018-12-12T15:43:54.385Z,99.33
2018-12-12T15:46:22.741Z,99.18
2018-12-12T15:48:51.090Z,99.40
2018-12-12T15:51:19.540Z,99.30
2018-12-12T15:53:47.844Z,98.76
2018-12-12T15:56:16.119Z,98.68
2018-12-12T15:58:44.521Z,98.70
2018-12-12T16:01:13.001Z,98.71
2018-12-12T16:03:41.381Z,98.62
2018-12-12T16:06:09.735Z,98.93
2018-12-12T16:08:38.062Z,98.61
2018-12-12T16:11:08.438Z,98.81
2018-12-12T16:13:36.838Z,99.03
2018-12-12T16:16:05.203Z,98.99
2018-12-12T16:18:33.583Z,98.49
2018-12-12T16:21:02.225Z,98.87
2018-12-12T16:23:30.696Z,98.24
2018-12-12T16:25:58.999Z,98.14
2018-12-12T16:28:28.663Z,97.57
2018-12-12T16:30:57.216Z,97.05
2018-12-12T16:33:25.611Z,97.71
2018-12-12T16:35:54.058Z,97.39
2018-12-12T16:38:22.597Z,97.46
2018-12-12T16:40:50.907Z,97.48
2018-12-12T16:43:19.294Z,97.10
2018-12-12T16:45:47.784Z,96.41
2018-12-12T16:48:16.160Z,95.54
2018-12-12T16:50:44.464Z,97.25
2018-12-12T16:53:12.906Z,94.34
2018-12-12T16:55:41.458Z,93.80
2018-12-12T16:58:09.840Z,93.97
2018-12-12T17:00:38.229Z,94.60
2018-12-12T17:03:06.850Z,95.41
2018-12-12T17:05:35.218Z,95.60
2018-12-12T17:08:03.777Z,95.22
2018-12-12T17:10:32.353Z,95.45
2018-12-12T17:13:00.748Z,95.78
2018-12-12T17:15:29.113Z,96.38
2018-12-12T17:17:57.590Z,96.43
2018-12-12T17:20:25.957Z,97.01
2018-12-12T17:22:54.271Z,96.29
2018-12-12T17:25:22.766Z,96.89
2018-12-12T17:27:51.104Z,96.51
2018-12-12T17:30:19.562Z,96.50
2018-12-12T17:32:47.876Z,96.94
2018-12-12T17:35:16.324Z,96.86
2018-12-12T17:37:44.628Z,96.79
2018-12-12T17:40:13.149Z,95.70
2018-12-12T17:42:41.473Z,95.58
2018-12-12T17:45:09.778Z,96.44
2018-12-12T17:47:38.109Z,96.00
2018-12-12T17:50:06.845Z,95.98
2018-12-12T17:52:35.192Z,96.40
2018-12-12T17:55:03.701Z,95.64
2018-12-12T17:57:32.041Z,95.69
2018-12-12T18:00:00.469Z,95.94
2018-12-12T18:02:28.939Z,95.18
2018-12-12T18:04:58.321Z,94.99
2018-12-12T18:07:26.712Z,94.57
2018-12-12T18:09:56.054Z,94.75
2018-12-12T18:12:24.471Z,94.39
2018-12-12T18:14:52.905Z,95.60
2018-12-12T18:17:21.232Z,95.35
2018-12-12T18:19:49.674Z,95.42
2018-12-12T18:22:18.108Z,94.41
2018-12-12T18:24:46.563Z,94.49
2018-12-12T18:27:14.952Z,94.33
2018-12-12T18:29:43.314Z,94.73
2018-12-12T18:32:11.825Z,94.41
2018-12-12T18:34:40.214Z,94.60
2018-12-12T18:37:08.553Z,94.81
2018-12-12T18:39:36.959Z,94.64
2018-12-12T18:42:05.438Z,94.91
2018-12-12T18:44:33.778Z,95.82
2018-12-12T18:47:02.209Z,95.69
2018-12-12T18:49:30.517Z,95.54
2018-12-12T18:51:58.798Z,96.58
2018-12-12T18:54:27.223Z,96.09
2018-12-12T18:56:55.594Z,96.44
2018-12-12T18:59:23.938Z,97.43
2018-12-12T19:01:52.406Z,97.92
2018-12-12T19:04:20.844Z,97.80
2018-12-12T19:06:49.208Z,97.96
2018-12-12T19:09:17.554Z,97.77
2018-12-12T19:11:46.121Z,98.12
2018-12-12T19:14:14.517Z,97.51
2018-12-12T19:16:42.923Z,98.12
2018-12-12T19:19:12.538Z,98.47
2018-12-12T19:21:41.204Z,98.21
2018-12-12T19:24:09.596Z,98.48
2018-12-12T19:26:38.140Z,98.36
2018-12-12T19:29:06.588Z,98.44
2018-12-12T19:31:35.093Z,98.76
2018-12-12T19:34:03.424Z,98.82
2018-12-12T19:36:32.479Z,98.99
2018-12-12T19:39:01.284Z,98.28
2018-12-12T19:41:29.665Z,98.80
2018-12-12T19:43:58.065Z,98.51
2018-12-12T19:46:26.591Z,98.90
2018-12-12T19:48:54.934Z,99.07
2018-12-12T19:51:23.297Z,98.66
2018-12-12T19:53:51.584Z,99.53
2018-12-12T19:56:19.881Z,98.95
2018-12-12T19:58:48.196Z,99.16
2018-12-12T20:01:16.532Z,98.24
2018-12-12T20:03:44.962Z,98.05
2018-12-12T20:06:13.376Z,98.52
2018-12-12T20:08:41.779Z,99.29
2018-12-12T20:11:10.197Z,98.96
2018-12-12T20:13:38.840Z,99.23
2018-12-12T20:16:07.566Z,99.85
2018-12-12T20:18:35.953Z,99.44
2018-12-12T20:21:04.415Z,99.04
2018-12-12T20:23:32.772Z,99.12
2018-12-12T20:26:01.402Z,99.06
2018-12-12T20:28:29.779Z,99.47
2018-12-12T20:30:58.233Z,98.63
2018-12-12T20:33:28.236Z,98.97
2018-12-12T20:35:56.531Z,97.86
2018-12-12T20:38:25.268Z,98.13
2018-12-12T20:40:54.224Z,98.10
2018-12-12T20:43:22.632Z,97.74
2018-12-12T20:45:50.960Z,97.87
2018-12-12T20:48:20.735Z,98.70
2018-12-12T20:50:49.324Z,99.08
2018-12-12T20:53:17.686Z,99.37
2018-12-12T20:55:47.717Z,99.18
2018-12-12T20:58:16.125Z,99.27
2018-12-12T21:00:44.517Z,98.83
2018-12-12T21:03:13.246Z,98.72
2018-12-12T21:05:41.714Z,98.94
2018-12-12T21:11:09.354Z,97.87
2018-12-12T21:13:37.688Z,97.75
2018-12-12T21:16:06.115Z,97.89
2018-12-12T21:18:36.882Z,97.76
2018-12-12T21:21:05.471Z,98.38
2018-12-12T21:23:33.768Z,98.26
2018-12-12T21:26:02.621Z,98.26
2018-12-12T21:28:31.795Z,98.52
2018-12-12T21:31:00.339Z,98.63
2018-12-12T21:33:29.001Z,99.50
2018-12-12T21:36:00.881Z,99.79
2018-12-12T21:38:30.453Z,99.29
2018-12-12T21:40:59.052Z,99.36
2018-12-12T21:43:27.388Z,99.59
2018-12-12T21:45:55.756Z,98.65
2018-12-12T21:48:25.908Z,98.42
2018-12-12T21:50:54.189Z,98.96
2018-12-12T21:53:22.695Z,99.10
2018-12-12T21:55:51.043Z,99.09
2018-12-12T21:58:19.853Z,98.71
2018-12-12T22:00:48.420Z,98.64
2018-12-12T22:03:16.920Z,98.71
2018-12-12T22:05:45.927Z,98.86
2018-12-12T22:08:14.830Z,99.35
2018-12-12T22:10:43.193Z,98.73
2018-12-12T22:13:13.003Z,98.79
2018-12-12T22:15:43.316Z,98.81
2018-12-12T22:18:12.775Z,98.27
2018-12-12T22:20:41.799Z,99.23
2018-12-12T22:23:11.534Z,98.64
2018-12-12T22:25:39.876Z,99.25
2018-12-12T22:28:08.289Z,99.55
2018-12-12T22:30:36.617Z,99.67
2018-12-12T22:33:04.953Z,99.53
2018-12-12T22:35:33.298Z,99.34
2018-12-12T22:38:01.709Z,99.63
2018-12-12T22:40:30.056Z,99.72
2018-12-12T22:42:58.456Z,98.96
2018-12-12T22:45:26.790Z,98.35
2018-12-12T22:47:55.336Z,98.18
2018-12-12T22:50:23.661Z,98.33
2018-12-12T22:52:52.089Z,97.49
2018-12-12T22:55:20.543Z,98.02
2018-12-12T22:57:49.021Z,97.94
2018-12-12T23:01:20.556Z,97.84
2018-12-12T23:03:48.948Z,97.76
2018-12-12T23:06:20.343Z,97.52
2018-12-12T23:08:47.891Z,96.74
2018-12-12T23:11:16.181Z,96.91
2018-12-12T23:13:44.619Z,94.29
2018-12-12T23:16:12.990Z,94.34
2018-12-12T23:18:41.289Z,94.81
2018-12-12T23:21:09.717Z,93.91
2018-12-12T23:23:38.033Z,94.60
2018-12-12T23:26:06.300Z,95.00
2018-12-12T23:28:35.523Z,95.11
2018-12-12T23:31:03.806Z,94.74
2018-12-12T23:33:32.130Z,95.29
2018-12-12T23:36:00.501Z,94.98
2018-12-12T23:38:28.929Z,95.20
2018-12-12T23:40:57.419Z,94.80
2018-12-12T23:43:25.793Z,95.60
2018-12-12T23:45:54.106Z,95.64
2018-12-12T23:48:22.419Z,95.27
2018-12-12T23:50:50.785Z,94.36
2018-12-12T23:53:19.169Z,95.51
2018-12-12T23:55:47.519Z,94.11
2018-12-12T23:58:15.838Z,94.86
